sensor_id;sensor_type;location;lat;lon;timestamp;temperature;humidity
4910;DHT22;2470;49.868;8.660;2023-12-29T00:00:21;9.60;99.90
4910;DHT22;2470;49.868;8.660;2023-12-29T00:02:46;9.60;99.90
4910;DHT22;2470;49.868;8.660;2023-12-29T00:05:21;9.50;99.90
4910;DHT22;2470;49.868;8.660;2023-12-29T00:07:46;9.50;99.90
4910;DHT22;2470;49.868;8.660;2023-12-29T00:10:12;9.50;99.90
4910;DHT22;2470;49.868;8.660;2023-12-29T00:12:37;9.50;99.90
4910;DHT22;2470;49.868;8.660;2023-12-29T00:15:03;9.50;99.90
4910;DHT22;2470;49.868;8.660;2023-12-29T00:17:29;9.50;99.90
4910;DHT22;2470;49.868;8.660;2023-12-29T00:19:55;9.40;99.90
4910;DHT22;2470;49.868;8.660;2023-12-29T00:22:20;9.40;99.90
4910;DHT22;2470;49.868;8.660;2023-12-29T00:24:46;9.40;99.90
4910;DHT22;2470;49.868;8.660;2023-12-29T00:27:12;9.30;99.90
4910;DHT22;2470;49.868;8.660;2023-12-29T00:29:37;9.30;99.90
4910;DHT22;2470;49.868;8.660;2023-12-29T00:32:03;9.20;99.90
4910;DHT22;2470;49.868;8.660;2023-12-29T00:34:30;9.20;99.90
4910;DHT22;2470;49.868;8.660;2023-12-29T00:36:55;9.20;99.90
4910;DHT22;2470;49.868;8.660;2023-12-29T00:39:21;9.20;99.90
4910;DHT22;2470;49.868;8.660;2023-12-29T00:41:54;9.10;99.90
4910;DHT22;2470;49.868;8.660;2023-12-29T00:44:20;9.10;99.90
4910;DHT22;2470;49.868;8.660;2023-12-29T00:46:46;9.10;99.90
4910;DHT22;2470;49.868;8.660;2023-12-29T00:49:11;9.00;99.90
4910;DHT22;2470;49.868;8.660;2023-12-29T00:51:40;9.00;99.90
4910;DHT22;2470;49.868;8.660;2023-12-29T00:54:08;9.10;99.90
4910;DHT22;2470;49.868;8.660;2023-12-29T00:56:34;9.00;99.90
4910;DHT22;2470;49.868;8.660;2023-12-29T00:58:59;9.00;99.90
4910;DHT22;2470;49.868;8.660;2023-12-29T01:01:25;9.00;99.90
4910;DHT22;2470;49.868;8.660;2023-12-29T01:03:50;9.00;99.90
4910;DHT22;2470;49.868;8.660;2023-12-29T01:06:20;9.00;99.90
4910;DHT22;2470;49.868;8.660;2023-12-29T01:08:45;9.00;99.90
4910;DHT22;2470;49.868;8.660;2023-12-29T01:11:11;9.00;99.90
4910;DHT22;2470;49.868;8.660;2023-12-29T01:13:36;8.90;99.90
4910;DHT22;2470;49.868;8.660;2023-12-29T01:16:02;8.90;99.90
4910;DHT22;2470;49.868;8.660;2023-12-29T01:18:28;8.90;99.90
4910;DHT22;2470;49.868;8.660;2023-12-29T01:20:53;8.90;99.90
4910;DHT22;2470;49.868;8.660;2023-12-29T01:23:19;9.00;99.90
4910;DHT22;2470;49.868;8.660;2023-12-29T01:25:44;8.90;99.90
4910;DHT22;2470;49.868;8.660;2023-12-29T01:28:10;8.90;99.90
4910;DHT22;2470;49.868;8.660;2023-12-29T01:30:35;9.00;99.90
4910;DHT22;2470;49.868;8.660;2023-12-29T01:33:01;9.00;99.90
4910;DHT22;2470;49.868;8.660;2023-12-29T01:35:26;9.10;99.90
4910;DHT22;2470;49.868;8.660;2023-12-29T01:37:52;9.20;99.90
4910;DHT22;2470;49.868;8.660;2023-12-29T01:40:17;9.30;99.90
4910;DHT22;2470;49.868;8.660;2023-12-29T01:42:43;9.20;99.90
4910;DHT22;2470;49.868;8.660;2023-12-29T01:45:23;9.20;99.90
4910;DHT22;2470;49.868;8.660;2023-12-29T01:47:49;9.20;99.90
4910;DHT22;2470;49.868;8.660;2023-12-29T01:50:18;9.20;99.90
4910;DHT22;2470;49.868;8.660;2023-12-29T01:52:45;9.20;99.90
4910;DHT22;2470;49.868;8.660;2023-12-29T01:55:17;9.20;99.90
4910;DHT22;2470;49.868;8.660;2023-12-29T01:57:43;9.30;99.90
4910;DHT22;2470;49.868;8.660;2023-12-29T02:00:10;9.20;99.90
4910;DHT22;2470;49.868;8.660;2023-12-29T02:02:36;9.20;99.90
4910;DHT22;2470;49.868;8.660;2023-12-29T02:05:01;9.30;99.90
4910;DHT22;2470;49.868;8.660;2023-12-29T02:07:28;9.20;99.90
4910;DHT22;2470;49.868;8.660;2023-12-29T02:09:59;9.20;99.90
4910;DHT22;2470;49.868;8.660;2023-12-29T02:12:26;9.20;99.90
4910;DHT22;2470;49.868;8.660;2023-12-29T02:14:52;9.20;99.90
4910;DHT22;2470;49.868;8.660;2023-12-29T02:17:31;9.20;99.90
4910;DHT22;2470;49.868;8.660;2023-12-29T02:19:57;9.20;99.90
4910;DHT22;2470;49.868;8.660;2023-12-29T02:22:22;9.20;99.90
4910;DHT22;2470;49.868;8.660;2023-12-29T02:24:49;9.10;99.90
4910;DHT22;2470;49.868;8.660;2023-12-29T02:27:33;9.10;99.90
4910;DHT22;2470;49.868;8.660;2023-12-29T02:30:09;9.10;99.90
4910;DHT22;2470;49.868;8.660;2023-12-29T02:32:43;9.10;99.90
4910;DHT22;2470;49.868;8.660;2023-12-29T02:35:12;9.10;99.90
4910;DHT22;2470;49.868;8.660;2023-12-29T02:37:39;9.10;99.90
4910;DHT22;2470;49.868;8.660;2023-12-29T02:40:07;9.10;99.90
4910;DHT22;2470;49.868;8.660;2023-12-29T02:42:33;9.10;99.90
4910;DHT22;2470;49.868;8.660;2023-12-29T02:44:58;9.10;99.90
4910;DHT22;2470;49.868;8.660;2023-12-29T02:47:24;9.20;99.90
4910;DHT22;2470;49.868;8.660;2023-12-29T02:49:50;9.20;99.90
4910;DHT22;2470;49.868;8.660;2023-12-29T02:52:16;9.30;99.90
4910;DHT22;2470;49.868;8.660;2023-12-29T02:54:41;9.20;99.90
4910;DHT22;2470;49.868;8.660;2023-12-29T02:57:07;9.30;99.90
4910;DHT22;2470;49.868;8.660;2023-12-29T02:59:32;9.20;99.90
4910;DHT22;2470;49.868;8.660;2023-12-29T03:01:58;9.30;99.90
4910;DHT22;2470;49.868;8.660;2023-12-29T03:04:23;9.30;99.90
4910;DHT22;2470;49.868;8.660;2023-12-29T03:06:48;9.30;99.90
4910;DHT22;2470;49.868;8.660;2023-12-29T03:09:14;9.30;99.90
4910;DHT22;2470;49.868;8.660;2023-12-29T03:11:40;9.30;99.90
4910;DHT22;2470;49.868;8.660;2023-12-29T03:14:05;9.30;99.90
4910;DHT22;2470;49.868;8.660;2023-12-29T03:16:31;9.30;99.90
4910;DHT22;2470;49.868;8.660;2023-12-29T03:18:56;9.40;99.90
4910;DHT22;2470;49.868;8.660;2023-12-29T03:21:22;9.40;99.90
4910;DHT22;2470;49.868;8.660;2023-12-29T03:23:47;9.50;99.90
4910;DHT22;2470;49.868;8.660;2023-12-29T03:26:13;9.50;99.90
4910;DHT22;2470;49.868;8.660;2023-12-29T03:28:38;9.50;99.90
4910;DHT22;2470;49.868;8.660;2023-12-29T03:31:04;9.50;99.90
4910;DHT22;2470;49.868;8.660;2023-12-29T03:33:30;9.50;99.90
4910;DHT22;2470;49.868;8.660;2023-12-29T03:35:56;9.50;99.90
4910;DHT22;2470;49.868;8.660;2023-12-29T03:38:21;9.50;99.90
4910;DHT22;2470;49.868;8.660;2023-12-29T03:40:47;9.50;99.90
4910;DHT22;2470;49.868;8.660;2023-12-29T03:43:12;9.50;99.90
4910;DHT22;2470;49.868;8.660;2023-12-29T03:45:38;9.50;99.90
4910;DHT22;2470;49.868;8.660;2023-12-29T03:48:03;9.50;99.90
4910;DHT22;2470;49.868;8.660;2023-12-29T03:50:29;9.50;99.90
4910;DHT22;2470;49.868;8.660;2023-12-29T03:52:54;9.50;99.90
4910;DHT22;2470;49.868;8.660;2023-12-29T03:55:20;9.50;99.90
4910;DHT22;2470;49.868;8.660;2023-12-29T03:57:45;9.50;99.90
4910;DHT22;2470;49.868;8.660;2023-12-29T04:00:12;9.40;99.90
4910;DHT22;2470;49.868;8.660;2023-12-29T04:02:38;9.50;99.90
4910;DHT22;2470;49.868;8.660;2023-12-29T04:05:06;9.40;99.90
4910;DHT22;2470;49.868;8.660;2023-12-29T04:07:31;9.40;99.90
4910;DHT22;2470;49.868;8.660;2023-12-29T04:09:57;9.40;99.90
4910;DHT22;2470;49.868;8.660;2023-12-29T04:12:22;9.40;99.90
4910;DHT22;2470;49.868;8.660;2023-12-29T04:14:48;9.40;99.90
4910;DHT22;2470;49.868;8.660;2023-12-29T04:17:13;9.40;99.90
4910;DHT22;2470;49.868;8.660;2023-12-29T04:19:40;9.30;99.90
4910;DHT22;2470;49.868;8.660;2023-12-29T04:22:06;9.30;99.90
4910;DHT22;2470;49.868;8.660;2023-12-29T04:24:33;9.30;99.90
4910;DHT22;2470;49.868;8.660;2023-12-29T04:26:58;9.30;99.90
4910;DHT22;2470;49.868;8.660;2023-12-29T04:29:24;9.30;99.90
4910;DHT22;2470;49.868;8.660;2023-12-29T04:31:49;9.30;99.90
4910;DHT22;2470;49.868;8.660;2023-12-29T04:34:15;9.20;99.90
4910;DHT22;2470;49.868;8.660;2023-12-29T04:36:40;9.20;99.90
4910;DHT22;2470;49.868;8.660;2023-12-29T04:39:06;9.20;99.90
4910;DHT22;2470;49.868;8.660;2023-12-29T04:41:34;9.20;99.90
4910;DHT22;2470;49.868;8.660;2023-12-29T04:44:00;9.10;99.90
4910;DHT22;2470;49.868;8.660;2023-12-29T04:46:25;9.10;99.90
4910;DHT22;2470;49.868;8.660;2023-12-29T04:48:51;9.10;99.90
4910;DHT22;2470;49.868;8.660;2023-12-29T04:51:16;9.10;99.90
4910;DHT22;2470;49.868;8.660;2023-12-29T04:53:42;9.10;99.90
4910;DHT22;2470;49.868;8.660;2023-12-29T04:56:07;9.10;99.90
4910;DHT22;2470;49.868;8.660;2023-12-29T04:58:33;9.10;99.90
4910;DHT22;2470;49.868;8.660;2023-12-29T05:00:58;9.10;99.90
4910;DHT22;2470;49.868;8.660;2023-12-29T05:03:24;9.10;99.90
4910;DHT22;2470;49.868;8.660;2023-12-29T05:05:50;9.10;99.90
4910;DHT22;2470;49.868;8.660;2023-12-29T05:08:15;9.10;99.90
4910;DHT22;2470;49.868;8.660;2023-12-29T05:10:41;9.20;99.90
4910;DHT22;2470;49.868;8.660;2023-12-29T05:13:06;9.20;99.90
4910;DHT22;2470;49.868;8.660;2023-12-29T05:15:32;9.20;99.90
4910;DHT22;2470;49.868;8.660;2023-12-29T05:17:57;9.20;99.90
4910;DHT22;2470;49.868;8.660;2023-12-29T05:20:23;9.20;99.90
4910;DHT22;2470;49.868;8.660;2023-12-29T05:22:48;9.30;99.90
4910;DHT22;2470;49.868;8.660;2023-12-29T05:25:14;9.30;99.90
4910;DHT22;2470;49.868;8.660;2023-12-29T05:27:39;9.30;99.90
4910;DHT22;2470;49.868;8.660;2023-12-29T05:30:05;9.30;99.90
4910;DHT22;2470;49.868;8.660;2023-12-29T05:32:31;9.40;99.90
4910;DHT22;2470;49.868;8.660;2023-12-29T05:34:57;9.40;99.90
4910;DHT22;2470;49.868;8.660;2023-12-29T05:37:22;9.50;99.90
4910;DHT22;2470;49.868;8.660;2023-12-29T05:39:48;9.50;99.90
4910;DHT22;2470;49.868;8.660;2023-12-29T05:42:13;9.40;99.90
4910;DHT22;2470;49.868;8.660;2023-12-29T05:44:39;9.40;99.90
4910;DHT22;2470;49.868;8.660;2023-12-29T05:47:05;9.40;99.90
4910;DHT22;2470;49.868;8.660;2023-12-29T05:49:30;9.40;99.90
4910;DHT22;2470;49.868;8.660;2023-12-29T05:51:57;9.50;99.90
4910;DHT22;2470;49.868;8.660;2023-12-29T05:54:22;9.50;99.90
4910;DHT22;2470;49.868;8.660;2023-12-29T05:56:49;9.50;99.90
4910;DHT22;2470;49.868;8.660;2023-12-29T05:59:14;9.50;99.90
4910;DHT22;2470;49.868;8.660;2023-12-29T06:01:40;9.50;99.90
4910;DHT22;2470;49.868;8.660;2023-12-29T06:04:05;9.50;99.90
4910;DHT22;2470;49.868;8.660;2023-12-29T06:06:31;9.50;99.90
4910;DHT22;2470;49.868;8.660;2023-12-29T06:08:56;9.40;99.90
4910;DHT22;2470;49.868;8.660;2023-12-29T06:11:21;9.40;99.90
4910;DHT22;2470;49.868;8.660;2023-12-29T06:13:50;9.50;99.90
4910;DHT22;2470;49.868;8.660;2023-12-29T06:16:20;9.50;99.90
4910;DHT22;2470;49.868;8.660;2023-12-29T06:18:46;9.60;99.90
4910;DHT22;2470;49.868;8.660;2023-12-29T06:21:12;9.60;99.90
4910;DHT22;2470;49.868;8.660;2023-12-29T06:23:38;9.70;99.90
4910;DHT22;2470;49.868;8.660;2023-12-29T06:26:03;9.70;99.90
4910;DHT22;2470;49.868;8.660;2023-12-29T06:28:29;9.70;99.90
4910;DHT22;2470;49.868;8.660;2023-12-29T06:30:54;9.70;99.90
4910;DHT22;2470;49.868;8.660;2023-12-29T06:33:20;9.70;99.90
4910;DHT22;2470;49.868;8.660;2023-12-29T06:35:47;9.70;99.90
4910;DHT22;2470;49.868;8.660;2023-12-29T06:38:13;9.60;99.90
4910;DHT22;2470;49.868;8.660;2023-12-29T06:40:38;9.60;99.90
4910;DHT22;2470;49.868;8.660;2023-12-29T06:43:04;9.50;99.90
4910;DHT22;2470;49.868;8.660;2023-12-29T06:45:29;9.40;99.90
4910;DHT22;2470;49.868;8.660;2023-12-29T06:47:55;9.40;99.90
4910;DHT22;2470;49.868;8.660;2023-12-29T06:50:20;9.30;99.90
4910;DHT22;2470;49.868;8.660;2023-12-29T06:52:46;9.30;99.90
4910;DHT22;2470;49.868;8.660;2023-12-29T06:55:11;9.30;99.90
4910;DHT22;2470;49.868;8.660;2023-12-29T06:57:37;9.30;99.90
4910;DHT22;2470;49.868;8.660;2023-12-29T07:00:04;9.30;99.90
4910;DHT22;2470;49.868;8.660;2023-12-29T07:02:29;9.30;99.90
4910;DHT22;2470;49.868;8.660;2023-12-29T07:04:56;9.30;99.90
4910;DHT22;2470;49.868;8.660;2023-12-29T07:07:21;9.30;99.90
4910;DHT22;2470;49.868;8.660;2023-12-29T07:09:47;9.40;99.90
4910;DHT22;2470;49.868;8.660;2023-12-29T07:12:12;9.40;99.90
4910;DHT22;2470;49.868;8.660;2023-12-29T07:14:38;9.50;99.90
4910;DHT22;2470;49.868;8.660;2023-12-29T07:17:04;9.50;99.90
4910;DHT22;2470;49.868;8.660;2023-12-29T07:19:29;9.50;99.90
4910;DHT22;2470;49.868;8.660;2023-12-29T07:22:04;9.50;99.90
4910;DHT22;2470;49.868;8.660;2023-12-29T07:24:32;9.50;99.90
4910;DHT22;2470;49.868;8.660;2023-12-29T07:26:57;9.50;99.90
4910;DHT22;2470;49.868;8.660;2023-12-29T07:29:23;9.50;99.90
4910;DHT22;2470;49.868;8.660;2023-12-29T07:31:48;9.50;99.90
4910;DHT22;2470;49.868;8.660;2023-12-29T07:34:14;9.50;99.90
4910;DHT22;2470;49.868;8.660;2023-12-29T07:36:40;9.50;99.90
4910;DHT22;2470;49.868;8.660;2023-12-29T07:39:06;9.50;99.90
4910;DHT22;2470;49.868;8.660;2023-12-29T07:41:31;9.50;99.90
4910;DHT22;2470;49.868;8.660;2023-12-29T07:43:57;9.50;99.90
4910;DHT22;2470;49.868;8.660;2023-12-29T07:46:26;9.50;99.90
4910;DHT22;2470;49.868;8.660;2023-12-29T07:48:52;9.60;99.90
4910;DHT22;2470;49.868;8.660;2023-12-29T07:51:18;9.60;99.90
4910;DHT22;2470;49.868;8.660;2023-12-29T07:53:43;9.70;99.90
4910;DHT22;2470;49.868;8.660;2023-12-29T07:56:10;9.80;99.90
4910;DHT22;2470;49.868;8.660;2023-12-29T07:58:36;9.80;99.90
4910;DHT22;2470;49.868;8.660;2023-12-29T08:01:01;9.80;99.90
4910;DHT22;2470;49.868;8.660;2023-12-29T08:03:27;9.80;99.90
4910;DHT22;2470;49.868;8.660;2023-12-29T08:05:52;9.90;99.90
4910;DHT22;2470;49.868;8.660;2023-12-29T08:08:18;9.90;99.90
4910;DHT22;2470;49.868;8.660;2023-12-29T08:10:43;10.00;99.90
4910;DHT22;2470;49.868;8.660;2023-12-29T08:13:08;10.00;99.90
4910;DHT22;2470;49.868;8.660;2023-12-29T08:15:35;10.00;99.90
4910;DHT22;2470;49.868;8.660;2023-12-29T08:18:00;10.10;99.90
4910;DHT22;2470;49.868;8.660;2023-12-29T08:20:26;10.10;99.90
4910;DHT22;2470;49.868;8.660;2023-12-29T08:22:51;10.10;99.90
4910;DHT22;2470;49.868;8.660;2023-12-29T08:25:17;10.20;99.90
4910;DHT22;2470;49.868;8.660;2023-12-29T08:27:43;10.30;99.90
4910;DHT22;2470;49.868;8.660;2023-12-29T08:30:08;10.30;99.90
4910;DHT22;2470;49.868;8.660;2023-12-29T08:32:34;10.30;99.90
4910;DHT22;2470;49.868;8.660;2023-12-29T08:35:00;10.40;99.90
4910;DHT22;2470;49.868;8.660;2023-12-29T08:37:25;10.40;99.90
4910;DHT22;2470;49.868;8.660;2023-12-29T08:39:51;10.50;99.90
4910;DHT22;2470;49.868;8.660;2023-12-29T08:42:16;10.50;99.90
4910;DHT22;2470;49.868;8.660;2023-12-29T08:44:42;10.50;99.90
4910;DHT22;2470;49.868;8.660;2023-12-29T08:47:07;10.60;99.90
4910;DHT22;2470;49.868;8.660;2023-12-29T08:49:37;10.60;99.90
4910;DHT22;2470;49.868;8.660;2023-12-29T08:52:04;10.60;99.90
4910;DHT22;2470;49.868;8.660;2023-12-29T08:54:29;10.60;99.90
4910;DHT22;2470;49.868;8.660;2023-12-29T08:56:55;10.70;99.90
4910;DHT22;2470;49.868;8.660;2023-12-29T08:59:21;10.70;99.90
4910;DHT22;2470;49.868;8.660;2023-12-29T09:01:46;10.70;99.90
4910;DHT22;2470;49.868;8.660;2023-12-29T09:04:12;10.80;99.90
4910;DHT22;2470;49.868;8.660;2023-12-29T09:06:38;10.80;99.90
4910;DHT22;2470;49.868;8.660;2023-12-29T09:09:04;10.80;99.90
4910;DHT22;2470;49.868;8.660;2023-12-29T09:11:29;10.80;99.90
4910;DHT22;2470;49.868;8.660;2023-12-29T09:13:54;10.80;99.90
4910;DHT22;2470;49.868;8.660;2023-12-29T09:16:20;10.90;99.90
4910;DHT22;2470;49.868;8.660;2023-12-29T09:18:45;10.90;99.90
4910;DHT22;2470;49.868;8.660;2023-12-29T09:21:11;11.00;99.90
4910;DHT22;2470;49.868;8.660;2023-12-29T09:23:37;11.10;99.90
4910;DHT22;2470;49.868;8.660;2023-12-29T09:26:04;11.00;99.90
4910;DHT22;2470;49.868;8.660;2023-12-29T09:28:32;11.00;99.90
4910;DHT22;2470;49.868;8.660;2023-12-29T09:30:57;11.10;99.90
4910;DHT22;2470;49.868;8.660;2023-12-29T09:33:23;11.10;99.90
4910;DHT22;2470;49.868;8.660;2023-12-29T09:35:50;11.10;99.90
4910;DHT22;2470;49.868;8.660;2023-12-29T09:38:16;11.10;99.90
4910;DHT22;2470;49.868;8.660;2023-12-29T09:40:41;11.10;99.90
4910;DHT22;2470;49.868;8.660;2023-12-29T09:43:09;11.10;99.90
4910;DHT22;2470;49.868;8.660;2023-12-29T09:45:37;11.20;99.90
4910;DHT22;2470;49.868;8.660;2023-12-29T09:48:06;11.30;99.90
4910;DHT22;2470;49.868;8.660;2023-12-29T09:50:32;11.30;99.90
4910;DHT22;2470;49.868;8.660;2023-12-29T09:53:02;11.40;99.90
4910;DHT22;2470;49.868;8.660;2023-12-29T09:55:27;11.40;99.90
4910;DHT22;2470;49.868;8.660;2023-12-29T09:57:54;11.40;99.90
4910;DHT22;2470;49.868;8.660;2023-12-29T10:00:20;11.30;99.90
4910;DHT22;2470;49.868;8.660;2023-12-29T10:02:46;11.40;99.90
4910;DHT22;2470;49.868;8.660;2023-12-29T10:05:14;11.40;99.90
4910;DHT22;2470;49.868;8.660;2023-12-29T10:07:42;11.40;99.90
4910;DHT22;2470;49.868;8.660;2023-12-29T10:10:15;11.40;99.90
4910;DHT22;2470;49.868;8.660;2023-12-29T10:12:44;11.50;99.90
4910;DHT22;2470;49.868;8.660;2023-12-29T10:15:19;11.40;99.90
4910;DHT22;2470;49.868;8.660;2023-12-29T10:18:07;11.40;99.90
4910;DHT22;2470;49.868;8.660;2023-12-29T10:23:36;11.30;99.90
4910;DHT22;2470;49.868;8.660;2023-12-29T10:26:04;11.30;99.90
4910;DHT22;2470;49.868;8.660;2023-12-29T10:28:31;11.30;99.90
4910;DHT22;2470;49.868;8.660;2023-12-29T10:30:57;11.30;99.90
4910;DHT22;2470;49.868;8.660;2023-12-29T10:33:23;11.30;99.90
4910;DHT22;2470;49.868;8.660;2023-12-29T10:35:59;11.20;99.90
4910;DHT22;2470;49.868;8.660;2023-12-29T10:38:28;11.20;99.90
4910;DHT22;2470;49.868;8.660;2023-12-29T10:40:53;11.20;99.90
4910;DHT22;2470;49.868;8.660;2023-12-29T10:43:23;11.30;99.90
4910;DHT22;2470;49.868;8.660;2023-12-29T10:45:49;11.40;99.90
4910;DHT22;2470;49.868;8.660;2023-12-29T10:48:21;11.50;99.90
4910;DHT22;2470;49.868;8.660;2023-12-29T10:50:49;11.50;99.90
4910;DHT22;2470;49.868;8.660;2023-12-29T10:53:15;11.50;99.90
4910;DHT22;2470;49.868;8.660;2023-12-29T10:55:42;11.60;99.90
4910;DHT22;2470;49.868;8.660;2023-12-29T10:58:08;11.60;99.90
4910;DHT22;2470;49.868;8.660;2023-12-29T11:00:33;11.50;99.90
4910;DHT22;2470;49.868;8.660;2023-12-29T11:02:59;11.60;99.90
4910;DHT22;2470;49.868;8.660;2023-12-29T11:05:25;11.60;99.90
4910;DHT22;2470;49.868;8.660;2023-12-29T11:07:52;11.50;99.90
4910;DHT22;2470;49.868;8.660;2023-12-29T11:10:20;11.50;99.90
4910;DHT22;2470;49.868;8.660;2023-12-29T11:12:47;11.50;99.90
4910;DHT22;2470;49.868;8.660;2023-12-29T11:15:14;11.50;99.90
4910;DHT22;2470;49.868;8.660;2023-12-29T11:17:42;11.50;99.90
4910;DHT22;2470;49.868;8.660;2023-12-29T11:20:17;11.50;99.90
4910;DHT22;2470;49.868;8.660;2023-12-29T11:22:43;11.50;99.90
4910;DHT22;2470;49.868;8.660;2023-12-29T11:25:09;11.50;99.90
4910;DHT22;2470;49.868;8.660;2023-12-29T11:27:35;11.50;99.90
4910;DHT22;2470;49.868;8.660;2023-12-29T11:30:02;11.50;99.90
4910;DHT22;2470;49.868;8.660;2023-12-29T11:32:42;11.40;99.90
4910;DHT22;2470;49.868;8.660;2023-12-29T11:35:28;11.40;99.90
4910;DHT22;2470;49.868;8.660;2023-12-29T11:38:00;11.50;99.90
4910;DHT22;2470;49.868;8.660;2023-12-29T11:40:42;11.40;99.90
4910;DHT22;2470;49.868;8.660;2023-12-29T11:43:17;11.50;99.90
4910;DHT22;2470;49.868;8.660;2023-12-29T11:45:43;11.50;99.90
4910;DHT22;2470;49.868;8.660;2023-12-29T11:48:09;11.50;99.90
4910;DHT22;2470;49.868;8.660;2023-12-29T11:50:38;11.50;99.90
4910;DHT22;2470;49.868;8.660;2023-12-29T11:53:07;11.50;99.90
4910;DHT22;2470;49.868;8.660;2023-12-29T11:55:38;11.60;99.90
4910;DHT22;2470;49.868;8.660;2023-12-29T11:58:22;11.70;99.90
4910;DHT22;2470;49.868;8.660;2023-12-29T12:00:48;11.70;99.90
4910;DHT22;2470;49.868;8.660;2023-12-29T12:05:45;11.70;99.90
4910;DHT22;2470;49.868;8.660;2023-12-29T12:08:26;11.70;99.90
4910;DHT22;2470;49.868;8.660;2023-12-29T12:10:52;11.70;99.90
4910;DHT22;2470;49.868;8.660;2023-12-29T12:13:43;11.60;99.90
4910;DHT22;2470;49.868;8.660;2023-12-29T12:16:09;11.60;99.90
4910;DHT22;2470;49.868;8.660;2023-12-29T12:18:35;11.60;99.90
4910;DHT22;2470;49.868;8.660;2023-12-29T12:21:03;11.60;99.90
4910;DHT22;2470;49.868;8.660;2023-12-29T12:23:33;11.70;99.90
4910;DHT22;2470;49.868;8.660;2023-12-29T12:26:00;11.80;99.90
4910;DHT22;2470;49.868;8.660;2023-12-29T12:28:26;11.80;99.90
4910;DHT22;2470;49.868;8.660;2023-12-29T12:30:52;11.90;99.90
4910;DHT22;2470;49.868;8.660;2023-12-29T12:33:19;11.90;99.90
4910;DHT22;2470;49.868;8.660;2023-12-29T12:35:44;11.90;99.90
4910;DHT22;2470;49.868;8.660;2023-12-29T12:38:16;12.00;99.90
4910;DHT22;2470;49.868;8.660;2023-12-29T12:40:46;12.00;99.90
4910;DHT22;2470;49.868;8.660;2023-12-29T12:43:16;12.00;99.90
4910;DHT22;2470;49.868;8.660;2023-12-29T12:45:47;12.00;99.90
4910;DHT22;2470;49.868;8.660;2023-12-29T12:48:19;12.00;99.90
4910;DHT22;2470;49.868;8.660;2023-12-29T12:50:46;12.10;99.90
4910;DHT22;2470;49.868;8.660;2023-12-29T12:53:13;12.00;99.90
4910;DHT22;2470;49.868;8.660;2023-12-29T12:55:49;12.00;99.90
4910;DHT22;2470;49.868;8.660;2023-12-29T12:58:18;12.00;99.90
4910;DHT22;2470;49.868;8.660;2023-12-29T13:00:46;12.00;99.90
4910;DHT22;2470;49.868;8.660;2023-12-29T13:03:12;12.10;99.90
4910;DHT22;2470;49.868;8.660;2023-12-29T13:05:38;12.30;99.90
4910;DHT22;2470;49.868;8.660;2023-12-29T13:08:04;12.60;99.90
4910;DHT22;2470;49.868;8.660;2023-12-29T13:10:30;12.70;99.90
4910;DHT22;2470;49.868;8.660;2023-12-29T13:12:56;12.70;99.90
4910;DHT22;2470;49.868;8.660;2023-12-29T13:15:22;12.60;99.90
4910;DHT22;2470;49.868;8.660;2023-12-29T13:17:54;12.70;99.90
4910;DHT22;2470;49.868;8.660;2023-12-29T13:20:20;12.70;99.90
4910;DHT22;2470;49.868;8.660;2023-12-29T13:22:49;12.80;99.90
4910;DHT22;2470;49.868;8.660;2023-12-29T13:25:24;12.80;99.90
4910;DHT22;2470;49.868;8.660;2023-12-29T13:27:52;12.90;99.90
4910;DHT22;2470;49.868;8.660;2023-12-29T13:30:19;13.00;99.90
4910;DHT22;2470;49.868;8.660;2023-12-29T13:32:46;13.30;99.90
4910;DHT22;2470;49.868;8.660;2023-12-29T13:35:37;13.30;99.90
4910;DHT22;2470;49.868;8.660;2023-12-29T13:38:23;13.20;99.90
4910;DHT22;2470;49.868;8.660;2023-12-29T13:41:07;13.30;99.90
4910;DHT22;2470;49.868;8.660;2023-12-29T13:43:36;13.40;99.90
4910;DHT22;2470;49.868;8.660;2023-12-29T13:46:03;13.20;99.90
4910;DHT22;2470;49.868;8.660;2023-12-29T13:48:30;13.10;99.90
4910;DHT22;2470;49.868;8.660;2023-12-29T13:50:57;13.00;99.90
4910;DHT22;2470;49.868;8.660;2023-12-29T13:53:22;13.30;99.90
4910;DHT22;2470;49.868;8.660;2023-12-29T13:55:48;13.40;99.90
4910;DHT22;2470;49.868;8.660;2023-12-29T13:58:15;13.60;99.90
4910;DHT22;2470;49.868;8.660;2023-12-29T14:00:43;13.50;99.90
4910;DHT22;2470;49.868;8.660;2023-12-29T14:03:30;13.20;99.90
4910;DHT22;2470;49.868;8.660;2023-12-29T14:06:04;12.90;99.90
4910;DHT22;2470;49.868;8.660;2023-12-29T14:08:38;12.60;99.90
4910;DHT22;2470;49.868;8.660;2023-12-29T14:11:08;12.30;99.90
4910;DHT22;2470;49.868;8.660;2023-12-29T14:13:34;12.20;99.90
4910;DHT22;2470;49.868;8.660;2023-12-29T14:16:00;12.10;99.90
4910;DHT22;2470;49.868;8.660;2023-12-29T14:21:35;12.00;99.90
4910;DHT22;2470;49.868;8.660;2023-12-29T14:24:10;11.90;99.90
4910;DHT22;2470;49.868;8.660;2023-12-29T14:26:37;11.80;99.90
4910;DHT22;2470;49.868;8.660;2023-12-29T14:29:04;11.80;99.90
4910;DHT22;2470;49.868;8.660;2023-12-29T14:31:41;11.80;99.90
4910;DHT22;2470;49.868;8.660;2023-12-29T14:34:08;11.70;99.90
4910;DHT22;2470;49.868;8.660;2023-12-29T14:36:34;11.70;99.90
4910;DHT22;2470;49.868;8.660;2023-12-29T14:39:00;11.70;99.90
4910;DHT22;2470;49.868;8.660;2023-12-29T14:41:26;11.70;99.90
4910;DHT22;2470;49.868;8.660;2023-12-29T14:43:52;11.60;99.90
4910;DHT22;2470;49.868;8.660;2023-12-29T14:46:18;11.60;99.90
4910;DHT22;2470;49.868;8.660;2023-12-29T14:48:44;11.60;99.90
4910;DHT22;2470;49.868;8.660;2023-12-29T14:51:09;11.50;99.90
4910;DHT22;2470;49.868;8.660;2023-12-29T14:53:35;11.50;99.90
4910;DHT22;2470;49.868;8.660;2023-12-29T14:56:00;11.50;99.90
4910;DHT22;2470;49.868;8.660;2023-12-29T14:58:26;11.50;99.90
4910;DHT22;2470;49.868;8.660;2023-12-29T15:00:51;11.50;99.90
4910;DHT22;2470;49.868;8.660;2023-12-29T15:03:17;11.40;99.90
4910;DHT22;2470;49.868;8.660;2023-12-29T15:05:45;11.40;99.90
4910;DHT22;2470;49.868;8.660;2023-12-29T15:08:11;11.40;99.90
4910;DHT22;2470;49.868;8.660;2023-12-29T15:10:37;11.40;99.90
4910;DHT22;2470;49.868;8.660;2023-12-29T15:13:03;11.40;99.90
4910;DHT22;2470;49.868;8.660;2023-12-29T15:15:29;11.40;99.90
4910;DHT22;2470;49.868;8.660;2023-12-29T15:17:54;11.30;99.90
4910;DHT22;2470;49.868;8.660;2023-12-29T15:20:20;11.30;99.90
4910;DHT22;2470;49.868;8.660;2023-12-29T15:22:45;11.30;99.90
4910;DHT22;2470;49.868;8.660;2023-12-29T15:25:11;11.20;99.90
4910;DHT22;2470;49.868;8.660;2023-12-29T15:27:36;11.20;99.90
4910;DHT22;2470;49.868;8.660;2023-12-29T15:30:02;11.10;99.90
4910;DHT22;2470;49.868;8.660;2023-12-29T15:32:28;11.10;99.90
4910;DHT22;2470;49.868;8.660;2023-12-29T15:34:53;11.10;99.90
4910;DHT22;2470;49.868;8.660;2023-12-29T15:37:18;11.10;99.90
4910;DHT22;2470;49.868;8.660;2023-12-29T15:39:45;11.10;99.90
4910;DHT22;2470;49.868;8.660;2023-12-29T15:42:10;11.10;99.90
4910;DHT22;2470;49.868;8.660;2023-12-29T15:44:36;11.10;99.90
4910;DHT22;2470;49.868;8.660;2023-12-29T15:47:02;11.10;99.90
4910;DHT22;2470;49.868;8.660;2023-12-29T15:49:27;11.20;99.90
4910;DHT22;2470;49.868;8.660;2023-12-29T15:51:53;11.10;99.90
4910;DHT22;2470;49.868;8.660;2023-12-29T15:54:18;11.10;99.90
4910;DHT22;2470;49.868;8.660;2023-12-29T15:56:44;11.10;99.90
4910;DHT22;2470;49.868;8.660;2023-12-29T15:59:09;11.10;99.90
4910;DHT22;2470;49.868;8.660;2023-12-29T16:01:35;11.00;99.90
4910;DHT22;2470;49.868;8.660;2023-12-29T16:04:00;11.00;99.90
4910;DHT22;2470;49.868;8.660;2023-12-29T16:06:27;11.00;99.90
4910;DHT22;2470;49.868;8.660;2023-12-29T16:08:53;11.00;99.90
4910;DHT22;2470;49.868;8.660;2023-12-29T16:11:23;10.90;99.90
4910;DHT22;2470;49.868;8.660;2023-12-29T16:13:49;10.90;99.90
4910;DHT22;2470;49.868;8.660;2023-12-29T16:16:15;10.90;99.90